sensor_id;sensor_type;location;lat;lon;timestamp;P1;durP1;ratioP1;P2;durP2;ratioP2
34565;SDS011;20803;42.676;26.348;2024-02-14T00:00:05;3.40;;;3.10;;
34565;SDS011;20803;42.676;26.348;2024-02-14T00:02:47;4.27;;;3.70;;
34565;SDS011;20803;42.676;26.348;2024-02-14T00:05:16;3.90;;;3.40;;
34565;SDS011;20803;42.676;26.348;2024-02-14T00:07:42;3.97;;;3.17;;
34565;SDS011;20803;42.676;26.348;2024-02-14T00:10:09;3.83;;;3.30;;
34565;SDS011;20803;42.676;26.348;2024-02-14T00:12:35;3.40;;;2.93;;
34565;SDS011;20803;42.676;26.348;2024-02-14T00:15:02;5.77;;;3.33;;
34565;SDS011;20803;42.676;26.348;2024-02-14T00:17:28;3.77;;;2.90;;
34565;SDS011;20803;42.676;26.348;2024-02-14T00:19:54;4.17;;;3.13;;
34565;SDS011;20803;42.676;26.348;2024-02-14T00:22:20;3.77;;;3.37;;
34565;SDS011;20803;42.676;26.348;2024-02-14T00:24:46;4.80;;;3.80;;
34565;SDS011;20803;42.676;26.348;2024-02-14T00:27:11;5.07;;;3.90;;
34565;SDS011;20803;42.676;26.348;2024-02-14T00:29:39;5.20;;;4.33;;
34565;SDS011;20803;42.676;26.348;2024-02-14T00:32:05;6.57;;;5.07;;
34565;SDS011;20803;42.676;26.348;2024-02-14T00:34:31;6.43;;;4.80;;
34565;SDS011;20803;42.676;26.348;2024-02-14T00:36:57;9.83;;;5.90;;
34565;SDS011;20803;42.676;26.348;2024-02-14T00:39:23;5.83;;;4.83;;
34565;SDS011;20803;42.676;26.348;2024-02-14T00:41:48;6.47;;;5.17;;
34565;SDS011;20803;42.676;26.348;2024-02-14T00:44:17;8.97;;;5.57;;
34565;SDS011;20803;42.676;26.348;2024-02-14T00:46:44;6.10;;;5.30;;
34565;SDS011;20803;42.676;26.348;2024-02-14T00:49:09;7.47;;;5.97;;
34565;SDS011;20803;42.676;26.348;2024-02-14T00:51:35;7.00;;;5.50;;
34565;SDS011;20803;42.676;26.348;2024-02-14T00:54:05;7.43;;;5.67;;
34565;SDS011;20803;42.676;26.348;2024-02-14T00:56:33;7.27;;;5.70;;
34565;SDS011;20803;42.676;26.348;2024-02-14T00:58:59;6.47;;;5.70;;
34565;SDS011;20803;42.676;26.348;2024-02-14T01:01:25;8.40;;;5.80;;
34565;SDS011;20803;42.676;26.348;2024-02-14T01:03:50;7.53;;;6.00;;
34565;SDS011;20803;42.676;26.348;2024-02-14T01:06:16;9.37;;;6.60;;
34565;SDS011;20803;42.676;26.348;2024-02-14T01:08:43;7.03;;;5.60;;
34565;SDS011;20803;42.676;26.348;2024-02-14T01:11:09;8.83;;;6.83;;
34565;SDS011;20803;42.676;26.348;2024-02-14T01:13:34;7.13;;;5.70;;
34565;SDS011;20803;42.676;26.348;2024-02-14T01:16:00;7.93;;;6.20;;
34565;SDS011;20803;42.676;26.348;2024-02-14T01:18:25;7.37;;;6.23;;
34565;SDS011;20803;42.676;26.348;2024-02-14T01:20:51;8.53;;;6.70;;
34565;SDS011;20803;42.676;26.348;2024-02-14T01:23:16;7.77;;;6.57;;
34565;SDS011;20803;42.676;26.348;2024-02-14T01:25:42;7.77;;;6.47;;
34565;SDS011;20803;42.676;26.348;2024-02-14T01:28:08;7.17;;;6.47;;
34565;SDS011;20803;42.676;26.348;2024-02-14T01:30:34;7.57;;;6.30;;
34565;SDS011;20803;42.676;26.348;2024-02-14T01:33:01;7.77;;;6.30;;
34565;SDS011;20803;42.676;26.348;2024-02-14T01:35:29;11.50;;;6.90;;
34565;SDS011;20803;42.676;26.348;2024-02-14T01:37:55;9.63;;;6.97;;
34565;SDS011;20803;42.676;26.348;2024-02-14T01:40:20;9.53;;;6.47;;
34565;SDS011;20803;42.676;26.348;2024-02-14T01:42:46;8.93;;;6.90;;
34565;SDS011;20803;42.676;26.348;2024-02-14T01:45:12;8.27;;;6.97;;
34565;SDS011;20803;42.676;26.348;2024-02-14T01:47:38;8.40;;;7.47;;
34565;SDS011;20803;42.676;26.348;2024-02-14T01:50:07;9.70;;;8.03;;
34565;SDS011;20803;42.676;26.348;2024-02-14T01:52:36;11.90;;;9.10;;
34565;SDS011;20803;42.676;26.348;2024-02-14T01:55:04;8.73;;;7.70;;
34565;SDS011;20803;42.676;26.348;2024-02-14T01:57:31;11.37;;;7.70;;
34565;SDS011;20803;42.676;26.348;2024-02-14T01:59:59;9.83;;;8.03;;
34565;SDS011;20803;42.676;26.348;2024-02-14T02:02:32;8.93;;;7.17;;
34565;SDS011;20803;42.676;26.348;2024-02-14T02:05:01;9.23;;;7.00;;
34565;SDS011;20803;42.676;26.348;2024-02-14T02:07:27;10.07;;;7.33;;
34565;SDS011;20803;42.676;26.348;2024-02-14T02:09:52;10.60;;;7.97;;
34565;SDS011;20803;42.676;26.348;2024-02-14T02:12:18;11.17;;;7.00;;
34565;SDS011;20803;42.676;26.348;2024-02-14T02:14:43;12.10;;;6.90;;
34565;SDS011;20803;42.676;26.348;2024-02-14T02:17:09;6.90;;;4.93;;
34565;SDS011;20803;42.676;26.348;2024-02-14T02:19:37;4.70;;;3.90;;
34565;SDS011;20803;42.676;26.348;2024-02-14T02:22:03;1.90;;;1.77;;
34565;SDS011;20803;42.676;26.348;2024-02-14T02:24:29;1.23;;;0.90;;
34565;SDS011;20803;42.676;26.348;2024-02-14T02:26:55;1.13;;;0.70;;
34565;SDS011;20803;42.676;26.348;2024-02-14T02:29:22;0.60;;;0.60;;
34565;SDS011;20803;42.676;26.348;2024-02-14T02:31:47;0.70;;;0.70;;
34565;SDS011;20803;42.676;26.348;2024-02-14T02:34:13;0.50;;;0.50;;
34565;SDS011;20803;42.676;26.348;2024-02-14T02:36:39;0.60;;;0.60;;
34565;SDS011;20803;42.676;26.348;2024-02-14T02:39:05;0.73;;;0.73;;
34565;SDS011;20803;42.676;26.348;2024-02-14T02:41:31;0.63;;;0.63;;
34565;SDS011;20803;42.676;26.348;2024-02-14T02:43:57;0.83;;;0.80;;
34565;SDS011;20803;42.676;26.348;2024-02-14T02:46:23;1.60;;;1.17;;
34565;SDS011;20803;42.676;26.348;2024-02-14T02:48:51;3.97;;;2.27;;
34565;SDS011;20803;42.676;26.348;2024-02-14T02:51:20;6.83;;;3.00;;
34565;SDS011;20803;42.676;26.348;2024-02-14T02:53:46;3.37;;;3.00;;
34565;SDS011;20803;42.676;26.348;2024-02-14T02:56:12;4.90;;;3.80;;
34565;SDS011;20803;42.676;26.348;2024-02-14T02:58:40;3.90;;;3.50;;
34565;SDS011;20803;42.676;26.348;2024-02-14T03:01:08;3.97;;;3.57;;
34565;SDS011;20803;42.676;26.348;2024-02-14T03:03:35;1.57;;;1.47;;
34565;SDS011;20803;42.676;26.348;2024-02-14T03:06:01;2.27;;;2.07;;
34565;SDS011;20803;42.676;26.348;2024-02-14T03:08:29;3.10;;;2.47;;
34565;SDS011;20803;42.676;26.348;2024-02-14T03:10:56;2.90;;;2.40;;
34565;SDS011;20803;42.676;26.348;2024-02-14T03:13:24;2.90;;;2.60;;
34565;SDS011;20803;42.676;26.348;2024-02-14T03:15:51;2.53;;;2.03;;
34565;SDS011;20803;42.676;26.348;2024-02-14T03:18:17;1.40;;;1.30;;
34565;SDS011;20803;42.676;26.348;2024-02-14T03:20:43;1.63;;;1.30;;
34565;SDS011;20803;42.676;26.348;2024-02-14T03:23:09;1.63;;;1.40;;
34565;SDS011;20803;42.676;26.348;2024-02-14T03:25:34;3.13;;;1.47;;
34565;SDS011;20803;42.676;26.348;2024-02-14T03:28:01;1.20;;;1.07;;
34565;SDS011;20803;42.676;26.348;2024-02-14T03:30:34;1.27;;;0.80;;
34565;SDS011;20803;42.676;26.348;2024-02-14T03:33:00;1.20;;;1.10;;
34565;SDS011;20803;42.676;26.348;2024-02-14T03:35:25;1.33;;;1.13;;
34565;SDS011;20803;42.676;26.348;2024-02-14T03:37:52;1.37;;;1.20;;
34565;SDS011;20803;42.676;26.348;2024-02-14T03:40:18;1.23;;;1.03;;
34565;SDS011;20803;42.676;26.348;2024-02-14T03:42:45;0.67;;;0.67;;
34565;SDS011;20803;42.676;26.348;2024-02-14T03:45:11;1.30;;;0.87;;
34565;SDS011;20803;42.676;26.348;2024-02-14T03:47:37;0.83;;;0.83;;
34565;SDS011;20803;42.676;26.348;2024-02-14T03:50:04;0.80;;;0.80;;
34565;SDS011;20803;42.676;26.348;2024-02-14T03:52:32;0.83;;;0.70;;
34565;SDS011;20803;42.676;26.348;2024-02-14T03:54:58;0.60;;;0.50;;
34565;SDS011;20803;42.676;26.348;2024-02-14T03:57:24;0.60;;;0.60;;
34565;SDS011;20803;42.676;26.348;2024-02-14T03:59:52;0.50;;;0.50;;
34565;SDS011;20803;42.676;26.348;2024-02-14T04:02:17;0.80;;;0.67;;
34565;SDS011;20803;42.676;26.348;2024-02-14T04:04:44;0.97;;;0.70;;
34565;SDS011;20803;42.676;26.348;2024-02-14T04:07:11;1.30;;;1.07;;
34565;SDS011;20803;42.676;26.348;2024-02-14T04:09:37;0.80;;;0.80;;
34565;SDS011;20803;42.676;26.348;2024-02-14T04:12:03;1.87;;;1.00;;
34565;SDS011;20803;42.676;26.348;2024-02-14T04:14:29;3.43;;;0.97;;
34565;SDS011;20803;42.676;26.348;2024-02-14T04:16:55;1.73;;;1.10;;
34565;SDS011;20803;42.676;26.348;2024-02-14T04:19:20;1.63;;;1.00;;
34565;SDS011;20803;42.676;26.348;2024-02-14T04:21:46;4.03;;;1.73;;
34565;SDS011;20803;42.676;26.348;2024-02-14T04:24:12;2.33;;;1.30;;
34565;SDS011;20803;42.676;26.348;2024-02-14T04:26:37;1.70;;;1.33;;
34565;SDS011;20803;42.676;26.348;2024-02-14T04:29:03;5.03;;;1.97;;
34565;SDS011;20803;42.676;26.348;2024-02-14T04:31:29;2.67;;;1.50;;
34565;SDS011;20803;42.676;26.348;2024-02-14T04:33:56;1.17;;;0.90;;
34565;SDS011;20803;42.676;26.348;2024-02-14T04:36:22;1.60;;;1.13;;
34565;SDS011;20803;42.676;26.348;2024-02-14T04:38:50;3.37;;;1.60;;
34565;SDS011;20803;42.676;26.348;2024-02-14T04:41:16;1.37;;;0.97;;
34565;SDS011;20803;42.676;26.348;2024-02-14T04:43:42;1.97;;;1.17;;
34565;SDS011;20803;42.676;26.348;2024-02-14T04:46:08;1.90;;;1.40;;
34565;SDS011;20803;42.676;26.348;2024-02-14T04:48:34;2.07;;;1.30;;
34565;SDS011;20803;42.676;26.348;2024-02-14T04:51:00;1.50;;;1.10;;
34565;SDS011;20803;42.676;26.348;2024-02-14T04:53:26;2.00;;;1.20;;
34565;SDS011;20803;42.676;26.348;2024-02-14T04:55:52;4.93;;;1.17;;
34565;SDS011;20803;42.676;26.348;2024-02-14T04:58:18;1.43;;;1.20;;
34565;SDS011;20803;42.676;26.348;2024-02-14T05:00:44;1.43;;;0.97;;
34565;SDS011;20803;42.676;26.348;2024-02-14T05:03:10;2.47;;;1.27;;
34565;SDS011;20803;42.676;26.348;2024-02-14T05:05:35;2.13;;;1.20;;
34565;SDS011;20803;42.676;26.348;2024-02-14T05:08:01;1.17;;;0.87;;
34565;SDS011;20803;42.676;26.348;2024-02-14T05:10:30;1.07;;;0.90;;
34565;SDS011;20803;42.676;26.348;2024-02-14T05:12:56;1.47;;;0.73;;
34565;SDS011;20803;42.676;26.348;2024-02-14T05:15:23;1.27;;;0.90;;
34565;SDS011;20803;42.676;26.348;2024-02-14T05:17:48;0.93;;;0.83;;
34565;SDS011;20803;42.676;26.348;2024-02-14T05:20:15;1.33;;;0.90;;
34565;SDS011;20803;42.676;26.348;2024-02-14T05:22:41;1.37;;;1.13;;
34565;SDS011;20803;42.676;26.348;2024-02-14T05:25:06;1.37;;;0.90;;
34565;SDS011;20803;42.676;26.348;2024-02-14T05:27:34;1.03;;;0.93;;
34565;SDS011;20803;42.676;26.348;2024-02-14T05:30:00;2.10;;;1.37;;
34565;SDS011;20803;42.676;26.348;2024-02-14T05:32:30;1.20;;;1.00;;
34565;SDS011;20803;42.676;26.348;2024-02-14T05:34:59;1.40;;;1.07;;
34565;SDS011;20803;42.676;26.348;2024-02-14T05:37:25;2.40;;;2.20;;
34565;SDS011;20803;42.676;26.348;2024-02-14T05:39:52;6.07;;;4.53;;
34565;SDS011;20803;42.676;26.348;2024-02-14T05:42:19;3.40;;;1.97;;
34565;SDS011;20803;42.676;26.348;2024-02-14T05:44:44;2.30;;;0.93;;
34565;SDS011;20803;42.676;26.348;2024-02-14T05:47:10;2.50;;;1.10;;
34565;SDS011;20803;42.676;26.348;2024-02-14T05:49:38;1.83;;;1.20;;
34565;SDS011;20803;42.676;26.348;2024-02-14T05:52:04;2.97;;;1.40;;
34565;SDS011;20803;42.676;26.348;2024-02-14T05:54:29;5.90;;;3.17;;
34565;SDS011;20803;42.676;26.348;2024-02-14T05:56:55;3.80;;;1.73;;
34565;SDS011;20803;42.676;26.348;2024-02-14T05:59:22;1.13;;;1.03;;
34565;SDS011;20803;42.676;26.348;2024-02-14T06:01:48;2.40;;;1.47;;
34565;SDS011;20803;42.676;26.348;2024-02-14T06:04:14;1.43;;;1.33;;
34565;SDS011;20803;42.676;26.348;2024-02-14T06:06:39;1.13;;;1.03;;
34565;SDS011;20803;42.676;26.348;2024-02-14T06:09:05;5.80;;;2.93;;
34565;SDS011;20803;42.676;26.348;2024-02-14T06:11:35;3.20;;;2.20;;
34565;SDS011;20803;42.676;26.348;2024-02-14T06:14:01;5.30;;;2.57;;
34565;SDS011;20803;42.676;26.348;2024-02-14T06:16:28;3.27;;;2.77;;
34565;SDS011;20803;42.676;26.348;2024-02-14T06:18:53;12.67;;;8.00;;
34565;SDS011;20803;42.676;26.348;2024-02-14T06:21:19;12.73;;;9.50;;
34565;SDS011;20803;42.676;26.348;2024-02-14T06:23:44;18.00;;;11.87;;
34565;SDS011;20803;42.676;26.348;2024-02-14T06:26:11;25.80;;;18.57;;
34565;SDS011;20803;42.676;26.348;2024-02-14T06:28:37;19.03;;;11.60;;
34565;SDS011;20803;42.676;26.348;2024-02-14T06:31:03;11.07;;;8.37;;
34565;SDS011;20803;42.676;26.348;2024-02-14T06:33:28;7.20;;;4.37;;
34565;SDS011;20803;42.676;26.348;2024-02-14T06:35:54;13.97;;;5.30;;
34565;SDS011;20803;42.676;26.348;2024-02-14T06:38:19;9.03;;;5.73;;
34565;SDS011;20803;42.676;26.348;2024-02-14T06:40:45;10.83;;;6.53;;
34565;SDS011;20803;42.676;26.348;2024-02-14T06:43:11;8.10;;;4.53;;
34565;SDS011;20803;42.676;26.348;2024-02-14T06:45:37;9.03;;;4.30;;
34565;SDS011;20803;42.676;26.348;2024-02-14T06:48:03;3.47;;;2.00;;
34565;SDS011;20803;42.676;26.348;2024-02-14T06:50:29;9.60;;;2.70;;
34565;SDS011;20803;42.676;26.348;2024-02-14T06:52:56;6.33;;;2.07;;
34565;SDS011;20803;42.676;26.348;2024-02-14T06:55:25;4.87;;;2.43;;
34565;SDS011;20803;42.676;26.348;2024-02-14T06:57:51;6.83;;;3.17;;
34565;SDS011;20803;42.676;26.348;2024-02-14T07:00:17;2.43;;;1.57;;
34565;SDS011;20803;42.676;26.348;2024-02-14T07:02:43;4.53;;;2.53;;
34565;SDS011;20803;42.676;26.348;2024-02-14T07:05:12;3.83;;;2.33;;
34565;SDS011;20803;42.676;26.348;2024-02-14T07:07:39;6.53;;;4.87;;
34565;SDS011;20803;42.676;26.348;2024-02-14T07:10:05;20.67;;;15.03;;
34565;SDS011;20803;42.676;26.348;2024-02-14T07:12:31;17.63;;;14.70;;
34565;SDS011;20803;42.676;26.348;2024-02-14T07:14:57;19.17;;;16.03;;
34565;SDS011;20803;42.676;26.348;2024-02-14T07:17:23;24.43;;;16.87;;
34565;SDS011;20803;42.676;26.348;2024-02-14T07:19:48;19.50;;;11.67;;
34565;SDS011;20803;42.676;26.348;2024-02-14T07:22:15;11.70;;;7.63;;
34565;SDS011;20803;42.676;26.348;2024-02-14T07:24:44;12.53;;;6.73;;
34565;SDS011;20803;42.676;26.348;2024-02-14T07:27:11;10.63;;;6.37;;
34565;SDS011;20803;42.676;26.348;2024-02-14T07:29:37;8.07;;;5.83;;
34565;SDS011;20803;42.676;26.348;2024-02-14T07:32:03;7.70;;;4.63;;
34565;SDS011;20803;42.676;26.348;2024-02-14T07:34:31;8.17;;;4.20;;
34565;SDS011;20803;42.676;26.348;2024-02-14T07:36:56;6.57;;;4.57;;
34565;SDS011;20803;42.676;26.348;2024-02-14T07:39:22;8.03;;;5.50;;
34565;SDS011;20803;42.676;26.348;2024-02-14T07:41:47;5.63;;;4.13;;
34565;SDS011;20803;42.676;26.348;2024-02-14T07:44:13;11.23;;;4.53;;
34565;SDS011;20803;42.676;26.348;2024-02-14T07:46:39;12.27;;;5.70;;
34565;SDS011;20803;42.676;26.348;2024-02-14T07:49:04;12.50;;;6.73;;
34565;SDS011;20803;42.676;26.348;2024-02-14T07:51:31;24.13;;;11.17;;
34565;SDS011;20803;42.676;26.348;2024-02-14T07:54:02;13.07;;;7.53;;
34565;SDS011;20803;42.676;26.348;2024-02-14T07:56:29;5.87;;;3.30;;
34565;SDS011;20803;42.676;26.348;2024-02-14T07:58:54;8.87;;;4.70;;
34565;SDS011;20803;42.676;26.348;2024-02-14T08:01:20;4.40;;;2.27;;
34565;SDS011;20803;42.676;26.348;2024-02-14T08:03:45;3.53;;;2.40;;
34565;SDS011;20803;42.676;26.348;2024-02-14T08:06:11;5.77;;;2.30;;
34565;SDS011;20803;42.676;26.348;2024-02-14T08:08:37;4.40;;;3.10;;
34565;SDS011;20803;42.676;26.348;2024-02-14T08:11:03;3.70;;;3.03;;
34565;SDS011;20803;42.676;26.348;2024-02-14T08:13:28;4.93;;;4.07;;
34565;SDS011;20803;42.676;26.348;2024-02-14T08:15:54;4.80;;;2.93;;
34565;SDS011;20803;42.676;26.348;2024-02-14T08:18:19;11.90;;;3.10;;
34565;SDS011;20803;42.676;26.348;2024-02-14T08:20:45;11.63;;;5.10;;
34565;SDS011;20803;42.676;26.348;2024-02-14T08:23:11;5.53;;;2.83;;
34565;SDS011;20803;42.676;26.348;2024-02-14T08:25:36;4.77;;;2.47;;
34565;SDS011;20803;42.676;26.348;2024-02-14T08:28:02;3.13;;;2.80;;
34565;SDS011;20803;42.676;26.348;2024-02-14T08:30:27;5.60;;;2.83;;
34565;SDS011;20803;42.676;26.348;2024-02-14T08:32:53;2.03;;;1.73;;
34565;SDS011;20803;42.676;26.348;2024-02-14T08:35:19;2.70;;;2.00;;
34565;SDS011;20803;42.676;26.348;2024-02-14T08:37:46;2.37;;;1.70;;
34565;SDS011;20803;42.676;26.348;2024-02-14T08:40:11;3.50;;;1.90;;
34565;SDS011;20803;42.676;26.348;2024-02-14T08:42:37;3.60;;;2.60;;
34565;SDS011;20803;42.676;26.348;2024-02-14T08:45:03;6.90;;;4.30;;
34565;SDS011;20803;42.676;26.348;2024-02-14T08:47:29;8.90;;;6.83;;
34565;SDS011;20803;42.676;26.348;2024-02-14T08:49:55;6.83;;;4.23;;
34565;SDS011;20803;42.676;26.348;2024-02-14T08:52:21;2.50;;;2.30;;
34565;SDS011;20803;42.676;26.348;2024-02-14T08:54:46;3.10;;;2.20;;
34565;SDS011;20803;42.676;26.348;2024-02-14T08:57:12;3.00;;;2.13;;
34565;SDS011;20803;42.676;26.348;2024-02-14T08:59:38;2.40;;;2.20;;
34565;SDS011;20803;42.676;26.348;2024-02-14T09:02:03;4.13;;;1.83;;
34565;SDS011;20803;42.676;26.348;2024-02-14T09:04:30;4.40;;;2.23;;
34565;SDS011;20803;42.676;26.348;2024-02-14T09:06:56;3.93;;;2.37;;
34565;SDS011;20803;42.676;26.348;2024-02-14T09:09:21;3.70;;;2.43;;
34565;SDS011;20803;42.676;26.348;2024-02-14T09:11:48;4.93;;;2.40;;
34565;SDS011;20803;42.676;26.348;2024-02-14T09:14:13;2.13;;;1.93;;
34565;SDS011;20803;42.676;26.348;2024-02-14T09:16:39;2.37;;;2.00;;
34565;SDS011;20803;42.676;26.348;2024-02-14T09:19:05;2.30;;;2.03;;
34565;SDS011;20803;42.676;26.348;2024-02-14T09:21:33;2.50;;;2.30;;
34565;SDS011;20803;42.676;26.348;2024-02-14T09:24:00;3.70;;;2.67;;
34565;SDS011;20803;42.676;26.348;2024-02-14T09:26:26;2.60;;;2.30;;
34565;SDS011;20803;42.676;26.348;2024-02-14T09:28:52;2.20;;;1.87;;
34565;SDS011;20803;42.676;26.348;2024-02-14T09:31:18;2.97;;;2.30;;
34565;SDS011;20803;42.676;26.348;2024-02-14T09:33:48;2.70;;;2.10;;
34565;SDS011;20803;42.676;26.348;2024-02-14T09:36:14;2.43;;;1.93;;
34565;SDS011;20803;42.676;26.348;2024-02-14T09:38:40;2.20;;;2.00;;
34565;SDS011;20803;42.676;26.348;2024-02-14T09:41:11;3.70;;;2.10;;
34565;SDS011;20803;42.676;26.348;2024-02-14T09:43:43;3.20;;;2.10;;
34565;SDS011;20803;42.676;26.348;2024-02-14T09:46:11;2.73;;;1.87;;
34565;SDS011;20803;42.676;26.348;2024-02-14T09:48:38;3.37;;;2.20;;
34565;SDS011;20803;42.676;26.348;2024-02-14T09:51:07;2.87;;;2.10;;
34565;SDS011;20803;42.676;26.348;2024-02-14T09:53:34;2.47;;;2.20;;
34565;SDS011;20803;42.676;26.348;2024-02-14T09:56:00;9.53;;;2.40;;
34565;SDS011;20803;42.676;26.348;2024-02-14T09:58:27;2.00;;;1.80;;
34565;SDS011;20803;42.676;26.348;2024-02-14T10:00:53;2.20;;;1.80;;
34565;SDS011;20803;42.676;26.348;2024-02-14T10:03:19;2.00;;;1.80;;
34565;SDS011;20803;42.676;26.348;2024-02-14T10:05:44;2.27;;;1.50;;
34565;SDS011;20803;42.676;26.348;2024-02-14T10:08:10;1.70;;;1.60;;
34565;SDS011;20803;42.676;26.348;2024-02-14T10:10:37;2.00;;;1.60;;
34565;SDS011;20803;42.676;26.348;2024-02-14T10:13:03;2.13;;;1.50;;
34565;SDS011;20803;42.676;26.348;2024-02-14T10:15:30;1.53;;;1.40;;
34565;SDS011;20803;42.676;26.348;2024-02-14T10:17:57;1.23;;;1.00;;
34565;SDS011;20803;42.676;26.348;2024-02-14T10:20:34;0.90;;;0.90;;
34565;SDS011;20803;42.676;26.348;2024-02-14T10:23:05;1.50;;;1.00;;
34565;SDS011;20803;42.676;26.348;2024-02-14T10:25:34;5.80;;;3.80;;
34565;SDS011;20803;42.676;26.348;2024-02-14T10:28:06;10.50;;;6.70;;
34565;SDS011;20803;42.676;26.348;2024-02-14T10:30:33;1.73;;;1.50;;
34565;SDS011;20803;42.676;26.348;2024-02-14T10:33:06;1.50;;;1.23;;
34565;SDS011;20803;42.676;26.348;2024-02-14T10:35:32;1.80;;;1.20;;
34565;SDS011;20803;42.676;26.348;2024-02-14T10:38:02;2.07;;;1.50;;
34565;SDS011;20803;42.676;26.348;2024-02-14T10:40:28;1.73;;;1.63;;
34565;SDS011;20803;42.676;26.348;2024-02-14T10:42:54;1.10;;;1.00;;
34565;SDS011;20803;42.676;26.348;2024-02-14T10:45:23;0.87;;;0.87;;
34565;SDS011;20803;42.676;26.348;2024-02-14T10:47:49;2.40;;;1.50;;
34565;SDS011;20803;42.676;26.348;2024-02-14T10:50:17;1.67;;;1.50;;
34565;SDS011;20803;42.676;26.348;2024-02-14T10:52:47;1.60;;;1.40;;
34565;SDS011;20803;42.676;26.348;2024-02-14T10:55:14;1.33;;;1.13;;
34565;SDS011;20803;42.676;26.348;2024-02-14T10:57:41;1.60;;;1.50;;
34565;SDS011;20803;42.676;26.348;2024-02-14T11:00:09;1.80;;;1.27;;
34565;SDS011;20803;42.676;26.348;2024-02-14T11:02:38;1.93;;;1.37;;
34565;SDS011;20803;42.676;26.348;2024-02-14T11:05:04;1.40;;;1.30;;
34565;SDS011;20803;42.676;26.348;2024-02-14T11:07:32;2.20;;;1.57;;
34565;SDS011;20803;42.676;26.348;2024-02-14T11:10:07;2.10;;;1.60;;
34565;SDS011;20803;42.676;26.348;2024-02-14T11:12:36;2.37;;;1.60;;
34565;SDS011;20803;42.676;26.348;2024-02-14T11:17:44;1.50;;;1.40;;
34565;SDS011;20803;42.676;26.348;2024-02-14T11:20:16;1.77;;;1.63;;
34565;SDS011;20803;42.676;26.348;2024-02-14T11:22:57;1.57;;;1.47;;
34565;SDS011;20803;42.676;26.348;2024-02-14T11:25:37;2.07;;;1.87;;
34565;SDS011;20803;42.676;26.348;2024-02-14T11:28:16;1.93;;;1.70;;
34565;SDS011;20803;42.676;26.348;2024-02-14T11:30:44;1.77;;;1.53;;
34565;SDS011;20803;42.676;26.348;2024-02-14T11:33:15;2.00;;;1.70;;
34565;SDS011;20803;42.676;26.348;2024-02-14T11:35:41;2.63;;;2.10;;
34565;SDS011;20803;42.676;26.348;2024-02-14T11:38:08;2.73;;;1.80;;
34565;SDS011;20803;42.676;26.348;2024-02-14T11:40:34;1.67;;;1.57;;
34565;SDS011;20803;42.676;26.348;2024-02-14T11:43:00;2.27;;;2.00;;
34565;SDS011;20803;42.676;26.348;2024-02-14T11:45:27;2.03;;;1.60;;
34565;SDS011;20803;42.676;26.348;2024-02-14T11:47:53;4.63;;;2.50;;
34565;SDS011;20803;42.676;26.348;2024-02-14T11:50:20;2.23;;;2.03;;
34565;SDS011;20803;42.676;26.348;2024-02-14T11:52:46;2.87;;;2.00;;
34565;SDS011;20803;42.676;26.348;2024-02-14T11:55:12;3.60;;;2.40;;
34565;SDS011;20803;42.676;26.348;2024-02-14T11:57:40;3.87;;;2.40;;
34565;SDS011;20803;42.676;26.348;2024-02-14T12:00:07;4.23;;;2.13;;
34565;SDS011;20803;42.676;26.348;2024-02-14T12:02:33;2.17;;;1.97;;
34565;SDS011;20803;42.676;26.348;2024-02-14T12:05:00;1.97;;;1.77;;
34565;SDS011;20803;42.676;26.348;2024-02-14T12:07:30;2.97;;;2.30;;
34565;SDS011;20803;42.676;26.348;2024-02-14T12:09:56;4.37;;;2.40;;
34565;SDS011;20803;42.676;26.348;2024-02-14T12:12:22;2.77;;;1.90;;
34565;SDS011;20803;42.676;26.348;2024-02-14T12:14:51;2.40;;;2.10;;
34565;SDS011;20803;42.676;26.348;2024-02-14T12:17:17;3.17;;;2.10;;
34565;SDS011;20803;42.676;26.348;2024-02-14T12:19:47;2.03;;;1.80;;
34565;SDS011;20803;42.676;26.348;2024-02-14T12:22:13;2.67;;;2.20;;
34565;SDS011;20803;42.676;26.348;2024-02-14T12:24:46;2.33;;;2.10;;
34565;SDS011;20803;42.676;26.348;2024-02-14T12:27:13;2.30;;;2.10;;
34565;SDS011;20803;42.676;26.348;2024-02-14T12:29:41;2.00;;;1.67;;
34565;SDS011;20803;42.676;26.348;2024-02-14T12:32:10;2.47;;;1.93;;
34565;SDS011;20803;42.676;26.348;2024-02-14T12:34:37;3.33;;;2.40;;
34565;SDS011;20803;42.676;26.348;2024-02-14T12:37:02;2.43;;;2.00;;
34565;SDS011;20803;42.676;26.348;2024-02-14T12:39:28;2.00;;;1.77;;
34565;SDS011;20803;42.676;26.348;2024-02-14T12:41:54;2.20;;;1.90;;
34565;SDS011;20803;42.676;26.348;2024-02-14T12:44:20;2.10;;;1.70;;
34565;SDS011;20803;42.676;26.348;2024-02-14T12:46:45;1.40;;;1.20;;
34565;SDS011;20803;42.676;26.348;2024-02-14T12:49:11;1.60;;;1.50;;
34565;SDS011;20803;42.676;26.348;2024-02-14T12:51:37;2.30;;;1.80;;
34565;SDS011;20803;42.676;26.348;2024-02-14T12:54:06;1.83;;;1.53;;
34565;SDS011;20803;42.676;26.348;2024-02-14T12:56:37;2.17;;;1.87;;
34565;SDS011;20803;42.676;26.348;2024-02-14T12:59:02;3.43;;;2.00;;
34565;SDS011;20803;42.676;26.348;2024-02-14T13:01:28;3.23;;;2.27;;
34565;SDS011;20803;42.676;26.348;2024-02-14T13:03:53;2.30;;;1.90;;
34565;SDS011;20803;42.676;26.348;2024-02-14T13:06:19;2.53;;;2.10;;
34565;SDS011;20803;42.676;26.348;2024-02-14T13:08:45;2.53;;;2.00;;
34565;SDS011;20803;42.676;26.348;2024-02-14T13:11:11;3.23;;;2.20;;
34565;SDS011;20803;42.676;26.348;2024-02-14T13:13:39;3.20;;;1.50;;
34565;SDS011;20803;42.676;26.348;2024-02-14T13:16:07;1.67;;;1.37;;
34565;SDS011;20803;42.676;26.348;2024-02-14T13:18:32;1.73;;;1.53;;
34565;SDS011;20803;42.676;26.348;2024-02-14T13:21:00;1.67;;;1.17;;
34565;SDS011;20803;42.676;26.348;2024-02-14T13:23:26;2.03;;;1.83;;
34565;SDS011;20803;42.676;26.348;2024-02-14T13:25:51;3.03;;;1.80;;
34565;SDS011;20803;42.676;26.348;2024-02-14T13:28:17;3.10;;;1.97;;
34565;SDS011;20803;42.676;26.348;2024-02-14T13:30:43;1.63;;;1.30;;
34565;SDS011;20803;42.676;26.348;2024-02-14T13:33:09;2.20;;;1.73;;
34565;SDS011;20803;42.676;26.348;2024-02-14T13:35:36;1.20;;;1.10;;
34565;SDS011;20803;42.676;26.348;2024-02-14T13:38:04;1.40;;;1.20;;
34565;SDS011;20803;42.676;26.348;2024-02-14T13:40:30;1.50;;;1.40;;
34565;SDS011;20803;42.676;26.348;2024-02-14T13:42:57;1.97;;;1.40;;
34565;SDS011;20803;42.676;26.348;2024-02-14T13:45:23;2.27;;;1.30;;
34565;SDS011;20803;42.676;26.348;2024-02-14T13:47:50;1.63;;;1.40;;
34565;SDS011;20803;42.676;26.348;2024-02-14T13:50:16;1.27;;;1.17;;
34565;SDS011;20803;42.676;26.348;2024-02-14T13:52:41;1.60;;;1.47;;
34565;SDS011;20803;42.676;26.348;2024-02-14T13:55:07;1.27;;;1.10;;
34565;SDS011;20803;42.676;26.348;2024-02-14T13:57:36;1.80;;;1.50;;
34565;SDS011;20803;42.676;26.348;2024-02-14T14:00:04;1.67;;;1.40;;
34565;SDS011;20803;42.676;26.348;2024-02-14T14:02:31;1.90;;;1.70;;
34565;SDS011;20803;42.676;26.348;2024-02-14T14:04:56;1.73;;;1.50;;
34565;SDS011;20803;42.676;26.348;2024-02-14T14:07:22;2.97;;;2.20;;
34565;SDS011;20803;42.676;26.348;2024-02-14T14:09:49;1.37;;;1.27;;
34565;SDS011;20803;42.676;26.348;2024-02-14T14:12:14;1.77;;;1.47;;
34565;SDS011;20803;42.676;26.348;2024-02-14T14:14:40;1.53;;;1.37;;
34565;SDS011;20803;42.676;26.348;2024-02-14T14:17:05;1.77;;;1.60;;
34565;SDS011;20803;42.676;26.348;2024-02-14T14:19:31;2.23;;;1.80;;
34565;SDS011;20803;42.676;26.348;2024-02-14T14:21:56;2.60;;;1.57;;
34565;SDS011;20803;42.676;26.348;2024-02-14T14:24:22;1.70;;;1.40;;
34565;SDS011;20803;42.676;26.348;2024-02-14T14:26:48;2.17;;;1.70;;
34565;SDS011;20803;42.676;26.348;2024-02-14T14:29:16;2.87;;;1.50;;
34565;SDS011;20803;42.676;26.348;2024-02-14T14:31:41;2.63;;;1.57;;